Time;durP1;ratioP1;P1;durP2;ratioP2;P2;SDS_P1;SDS_P2;PMS_P1;PMS_P2;Temp;Humidity;BMP_temperature;BMP_pressure;BME280_temperature;BME280_humidity;BME280_pressure;Samples;Min_cycle;Max_cycle;Signal;HPM_P1;HPM_P2
2023/11/10 00:02:10;;;;;;;8.43;2.53;;;19.10;46.00;;;;;;5051370;28;20192;-58
2023/11/10 00:04:38;;;;;;;8.25;1.73;;;19.10;46.00;;;;;;5051041;28;20242;-59
2023/11/10 00:07:05;;;;;;;8.73;2.38;;;19.10;45.90;;;;;;5052065;28;20195;-59
2023/11/10 00:09:32;;;;;;;8.32;2.08;;;19.10;45.90;;;;;;5051575;28;20571;-59
2023/11/10 00:12:01;;;;;;;5.45;1.83;;;19.10;46.00;;;;;;5050972;28;20274;-59
2023/11/10 00:14:29;;;;;;;8.48;2.67;;;19.10;46.00;;;;;;5051328;28;20646;-58
2023/11/10 00:16:56;;;;;;;8.73;2.63;;;19.10;45.90;;;;;;5051407;28;20219;-57
2023/11/10 00:19:24;;;;;;;6.10;2.10;;;19.10;46.00;;;;;;5051176;28;20226;-58
2023/11/10 00:21:52;;;;;;;7.05;2.40;;;19.00;45.90;;;;;;5051467;28;20666;-58
2023/11/10 00:24:23;;;;;;;6.78;2.22;;;19.00;45.90;;;;;;5051328;28;20218;-57
2023/11/10 00:26:51;;;;;;;6.22;2.35;;;19.10;46.00;;;;;;5050863;28;20184;-59
2023/11/10 00:29:17;;;;;;;5.78;1.70;;;19.00;45.90;;;;;;5051697;28;20247;-58
2023/11/10 00:31:45;;;;;;;9.43;2.10;;;19.00;45.90;;;;;;5051350;28;20195;-55
2023/11/10 00:34:12;;;;;;;8.63;1.90;;;19.00;45.90;;;;;;5050795;28;20212;-57
2023/11/10 00:36:40;;;;;;;4.95;2.03;;;19.00;46.00;;;;;;5051215;28;20216;-58
2023/11/10 00:39:09;;;;;;;9.45;2.25;;;19.00;46.00;;;;;;5051386;28;20230;-56
2023/11/10 00:41:36;;;;;;;6.95;2.20;;;19.00;46.00;;;;;;5051057;28;20196;-56
2023/11/10 00:44:05;;;;;;;8.02;1.83;;;19.00;46.10;;;;;;5051617;28;20251;-60
2023/11/10 00:46:32;;;;;;;5.55;1.88;;;19.00;46.00;;;;;;5050729;28;20286;-59
2023/11/10 00:48:59;;;;;;;6.82;1.77;;;19.00;46.00;;;;;;5053467;28;20225;-56
2023/11/10 00:51:26;;;;;;;4.70;1.40;;;19.00;46.00;;;;;;5054952;28;20237;-58
2023/11/10 00:53:53;;;;;;;6.70;1.92;;;19.00;46.00;;;;;;5054877;28;20258;-58
2023/11/10 00:56:22;;;;;;;5.80;1.92;;;19.00;46.00;;;;;;5054505;28;20220;-57
2023/11/10 00:58:49;;;;;;;6.22;2.20;;;19.00;46.00;;;;;;5055100;28;20235;-58
2023/11/10 01:01:15;;;;;;;8.35;2.10;;;19.00;46.10;;;;;;5054506;28;20676;-58
2023/11/10 01:03:43;;;;;;;6.40;2.10;;;19.00;46.20;;;;;;5054070;28;20231;-57
2023/11/10 01:06:10;;;;;;;6.38;2.10;;;19.00;46.20;;;;;;5054528;28;20196;-59
2023/11/10 01:08:37;;;;;;;8.57;1.80;;;19.00;46.20;;;;;;5054696;28;20227;-58
2023/11/10 01:11:04;;;;;;;5.60;2.00;;;18.90;46.20;;;;;;5054366;28;20188;-58
2023/11/10 01:13:34;;;;;;;5.97;1.70;;;19.00;46.20;;;;;;5054623;28;20222;-58
2023/11/10 01:16:01;;;;;;;7.25;1.70;;;18.90;46.10;;;;;;5054299;28;20200;-59
2023/11/10 01:18:28;;;;;;;4.47;1.70;;;18.90;46.20;;;;;;5053420;28;20266;-58
2023/11/10 01:20:56;;;;;;;6.65;2.40;;;18.90;46.30;;;;;;5054550;28;20271;-58
2023/11/10 01:23:23;;;;;;;6.20;2.03;;;18.90;46.30;;;;;;5054730;28;20216;-58
2023/11/10 01:25:50;;;;;;;9.75;1.63;;;18.90;46.30;;;;;;5054033;28;20271;-54
2023/11/10 01:28:18;;;;;;;5.32;2.03;;;18.90;46.30;;;;;;5054308;28;20618;-56
2023/11/10 01:30:47;;;;;;;7.57;1.80;;;18.90;47.00;;;;;;5053907;28;20557;-59
2023/11/10 01:33:14;;;;;;;6.05;1.88;;;18.90;46.40;;;;;;5053266;28;20650;-56
2023/11/10 01:35:41;;;;;;;5.95;1.73;;;18.90;46.40;;;;;;5053819;28;20279;-58
2023/11/10 01:38:08;;;;;;;6.10;1.77;;;18.90;46.40;;;;;;5053495;28;20241;-53
2023/11/10 01:40:38;;;;;;;8.80;2.25;;;18.90;46.50;;;;;;5053253;28;20657;-58
2023/11/10 01:43:08;;;;;;;7.97;2.13;;;18.90;46.50;;;;;;5053867;28;20219;-58
2023/11/10 01:45:35;;;;;;;6.57;2.00;;;18.90;46.50;;;;;;5053218;28;20191;-58
2023/11/10 01:48:05;;;;;;;4.28;1.58;;;18.90;46.60;;;;;;5053650;28;20302;-58
2023/11/10 01:50:32;;;;;;;4.75;1.67;;;18.90;46.60;;;;;;5053846;28;20191;-56
2023/11/10 01:53:00;;;;;;;5.68;1.70;;;18.90;46.70;;;;;;5053614;28;20306;-58
2023/11/10 01:55:28;;;;;;;8.20;2.17;;;18.90;46.70;;;;;;5053312;28;20274;-59
2023/11/10 01:57:55;;;;;;;5.80;2.10;;;18.90;46.70;;;;;;5053906;28;20254;-58
2023/11/10 02:00:30;;;;;;;6.85;2.00;;;18.90;46.80;;;;;;5052921;28;20283;-55
2023/11/10 02:02:58;;;;;;;8.15;1.85;;;18.90;46.80;;;;;;5052752;28;20223;-57
2023/11/10 02:05:26;;;;;;;9.05;2.40;;;18.80;46.70;;;;;;5053109;28;20615;-59
2023/11/10 02:07:53;;;;;;;7.05;1.98;;;18.90;46.80;;;;;;5053388;28;20251;-59
2023/11/10 02:10:20;;;;;;;4.63;1.63;;;18.80;46.70;;;;;;5053485;28;20198;-58
2023/11/10 02:12:52;;;;;;;7.63;1.83;;;18.80;46.60;;;;;;5053457;28;20261;-55
2023/11/10 02:15:19;;;;;;;5.93;1.75;;;18.80;47.40;;;;;;5053518;28;20216;-59
2023/11/10 02:17:46;;;;;;;6.50;1.50;;;18.80;47.40;;;;;;5051700;28;20227;-58
2023/11/10 02:20:13;;;;;;;6.75;1.75;;;18.80;46.70;;;;;;5052805;28;20687;-58
2023/11/10 02:22:43;;;;;;;4.22;1.60;;;18.80;46.80;;;;;;5052888;28;20214;-58
2023/11/10 02:25:15;;;;;;;5.32;1.50;;;18.80;46.80;;;;;;5052176;28;20275;-57
2023/11/10 02:27:43;;;;;;;5.78;1.92;;;18.80;46.70;;;;;;5052621;28;20823;-54
2023/11/10 02:30:11;;;;;;;5.63;1.77;;;18.80;46.80;;;;;;5052703;28;20283;-58
2023/11/10 02:32:38;;;;;;;4.20;1.50;;;18.80;46.80;;;;;;5052671;28;20279;-57
2023/11/10 02:35:07;;;;;;;7.10;1.80;;;18.80;46.80;;;;;;5052471;28;20188;-58
2023/11/10 02:37:34;;;;;;;4.70;1.60;;;18.80;46.80;;;;;;5052774;28;20712;-58
2023/11/10 02:40:01;;;;;;;4.30;1.27;;;18.80;46.80;;;;;;5052096;28;20191;-57
2023/11/10 02:42:29;;;;;;;5.10;1.63;;;18.80;46.80;;;;;;5052688;28;20279;-57
2023/11/10 02:44:56;;;;;;;3.75;1.50;;;18.80;46.80;;;;;;5052603;28;20287;-58
2023/11/10 02:47:24;;;;;;;5.93;1.75;;;18.80;46.90;;;;;;5052677;28;20192;-58
2023/11/10 02:49:51;;;;;;;7.80;1.50;;;18.80;46.90;;;;;;5052835;28;20183;-58
2023/11/10 02:52:18;;;;;;;5.07;1.58;;;18.80;46.90;;;;;;5052280;28;20275;-58
2023/11/10 02:54:45;;;;;;;6.70;1.80;;;18.80;46.90;;;;;;5052339;28;20215;-56
2023/11/10 02:57:13;;;;;;;9.02;1.67;;;18.80;47.00;;;;;;5052056;28;20211;-58
2023/11/10 02:59:41;;;;;;;5.28;1.58;;;18.70;46.90;;;;;;5051852;28;20302;-58
2023/11/10 03:02:08;;;;;;;5.07;1.55;;;18.70;47.00;;;;;;5051675;28;20195;-58
2023/11/10 03:04:37;;;;;;;7.35;1.83;;;18.70;47.00;;;;;;5052049;28;20727;-55
2023/11/10 03:07:05;;;;;;;7.47;1.70;;;18.70;47.00;;;;;;5052612;28;20261;-57
2023/11/10 03:09:32;;;;;;;4.95;1.55;;;18.70;47.00;;;;;;5052013;28;20263;-57
2023/11/10 03:11:59;;;;;;;5.55;1.75;;;18.70;47.10;;;;;;5052099;28;20646;-58
2023/11/10 03:14:25;;;;;;;7.20;2.17;;;18.70;47.10;;;;;;5052431;28;20302;-57
2023/11/10 03:16:54;;;;;;;6.78;1.92;;;18.70;47.10;;;;;;5051697;28;20725;-56
2023/11/10 03:19:21;;;;;;;4.05;1.52;;;18.70;47.10;;;;;;5052432;28;20216;-58
2023/11/10 03:21:48;;;;;;;7.25;1.92;;;18.70;47.10;;;;;;5052070;28;20204;-57
2023/11/10 03:24:14;;;;;;;8.85;2.50;;;18.70;47.10;;;;;;5051869;28;20219;-58
2023/11/10 03:26:41;;;;;;;6.88;1.60;;;18.70;47.10;;;;;;5051924;28;20191;-57
2023/11/10 03:29:08;;;;;;;7.47;1.92;;;18.70;47.80;;;;;;5051829;28;20701;-57
2023/11/10 03:31:37;;;;;;;5.65;1.42;;;18.70;47.20;;;;;;5051404;28;20184;-58
2023/11/10 03:34:05;;;;;;;8.60;1.65;;;18.70;47.20;;;;;;5051930;28;20788;-58
2023/11/10 03:36:32;;;;;;;6.78;1.88;;;18.70;47.20;;;;;;5051884;28;20192;-57
2023/11/10 03:38:59;;;;;;;6.75;2.08;;;18.70;47.30;;;;;;5050975;28;20704;-57
2023/11/10 03:41:26;;;;;;;7.20;2.03;;;18.70;47.40;;;;;;5051638;28;20199;-58
2023/11/10 03:43:53;;;;;;;6.53;1.95;;;18.70;47.30;;;;;;5052033;28;20220;-58
2023/11/10 03:46:20;;;;;;;8.95;1.88;;;18.60;47.30;;;;;;5051939;28;20294;-57
2023/11/10 03:48:47;;;;;;;6.45;2.00;;;18.60;47.30;;;;;;5052151;28;20218;-58
2023/11/10 03:51:15;;;;;;;5.38;1.70;;;18.70;47.40;;;;;;5051967;28;20720;-59
2023/11/10 03:53:42;;;;;;;11.05;2.35;;;18.60;47.30;;;;;;5052000;28;20247;-58
2023/11/10 03:56:09;;;;;;;7.78;1.98;;;18.60;47.30;;;;;;5052230;28;20270;-58
2023/11/10 03:58:36;;;;;;;6.90;1.83;;;18.60;47.40;;;;;;5051896;28;20685;-60
2023/11/10 04:01:10;;;;;;;6.25;2.15;;;18.60;47.40;;;;;;5051920;28;20188;-58
2023/11/10 04:03:37;;;;;;;8.27;2.08;;;18.60;47.30;;;;;;5051874;28;20281;-56
2023/11/10 04:06:04;;;;;;;10.80;2.45;;;18.60;47.40;;;;;;5052318;28;20286;-58
2023/11/10 04:08:33;;;;;;;8.50;2.60;;;18.60;47.40;;;;;;5051561;28;20306;-59
2023/11/10 04:11:00;;;;;;;8.80;2.20;;;18.60;47.40;;;;;;5051768;28;20676;-58
2023/11/10 04:13:27;;;;;;;7.45;1.65;;;18.60;47.40;;;;;;5051876;28;20639;-54
2023/11/10 04:15:54;;;;;;;7.53;2.13;;;18.60;47.40;;;;;;5051673;28;20235;-56
2023/11/10 04:18:22;;;;;;;10.40;2.20;;;18.60;47.40;;;;;;5052009;28;20231;-58
2023/11/10 04:20:49;;;;;;;9.90;2.40;;;18.60;47.40;;;;;;5051706;28;20188;-59
2023/11/10 04:23:16;;;;;;;6.97;1.90;;;18.60;47.40;;;;;;5053423;28;20250;-57
2023/11/10 04:25:44;;;;;;;10.20;2.72;;;18.60;47.40;;;;;;5055902;28;20284;-58
2023/11/10 04:28:12;;;;;;;8.65;2.22;;;18.50;47.30;;;;;;5055908;28;20218;-59
2023/11/10 04:30:39;;;;;;;8.75;2.10;;;18.60;47.40;;;;;;5055543;28;20568;-58
2023/11/10 04:33:06;;;;;;;10.63;2.25;;;18.60;47.40;;;;;;5055775;28;20215;-58
2023/11/10 04:35:32;;;;;;;7.68;2.17;;;18.60;47.40;;;;;;5055412;28;20696;-59
2023/11/10 04:38:00;;;;;;;9.30;2.63;;;18.50;47.30;;;;;;5055008;28;20620;-57
2023/11/10 04:40:27;;;;;;;8.30;2.55;;;18.60;47.40;;;;;;5055513;28;20279;-56
2023/11/10 04:42:57;;;;;;;9.23;2.10;;;18.60;47.30;;;;;;5055293;28;20922;-58
2023/11/10 04:45:26;;;;;;;12.13;2.42;;;18.50;47.20;;;;;;5055217;28;20192;-58
2023/11/10 04:47:53;;;;;;;9.82;2.35;;;18.50;47.20;;;;;;5055493;28;20196;-57
2023/11/10 04:50:21;;;;;;;11.20;2.03;;;18.50;47.30;;;;;;5055456;28;20195;-56
2023/11/10 04:52:51;;;;;;;6.85;1.90;;;18.50;47.20;;;;;;5054706;28;20705;-57
2023/11/10 04:55:19;;;;;;;11.07;2.33;;;18.50;47.20;;;;;;5055367;28;20270;-57
2023/11/10 04:57:46;;;;;;;7.35;1.85;;;18.50;47.20;;;;;;5054890;28;20705;-58
2023/11/10 05:00:15;;;;;;;8.15;2.53;;;18.50;47.30;;;;;;5054691;28;20191;-58
2023/11/10 05:02:43;;;;;;;10.48;2.33;;;18.50;47.30;;;;;;5055149;28;20192;-58
2023/11/10 05:05:13;;;;;;;8.43;2.33;;;18.50;47.30;;;;;;5054680;28;20263;-57
2023/11/10 05:07:40;;;;;;;8.68;2.40;;;18.50;47.30;;;;;;5055011;28;20206;-57
2023/11/10 05:10:08;;;;;;;8.38;2.08;;;18.50;47.30;;;;;;5055162;28;20191;-59
2023/11/10 05:12:36;;;;;;;7.65;2.20;;;18.50;47.30;;;;;;5055047;28;20535;-58
2023/11/10 05:15:05;;;;;;;7.88;2.22;;;18.50;47.40;;;;;;5054589;28;20188;-57
2023/11/10 05:17:35;;;;;;;9.13;2.42;;;18.50;47.40;;;;;;5054643;28;20658;-56
2023/11/10 05:20:03;;;;;;;11.27;2.40;;;18.50;47.40;;;;;;5055139;28;20227;-58
2023/11/10 05:22:31;;;;;;;8.80;2.40;;;18.50;47.40;;;;;;5054568;28;20183;-58
2023/11/10 05:24:58;;;;;;;11.35;1.85;;;18.50;47.40;;;;;;5055019;28;20305;-56
2023/11/10 05:27:25;;;;;;;8.25;2.00;;;18.50;47.30;;;;;;5054708;28;20283;-58
2023/11/10 05:29:52;;;;;;;8.40;2.05;;;18.50;47.40;;;;;;5054627;28;20306;-59
2023/11/10 05:32:19;;;;;;;7.85;2.40;;;18.50;47.40;;;;;;5054764;28;20226;-56
2023/11/10 05:34:50;;;;;;;6.38;2.13;;;18.50;47.40;;;;;;5054733;28;20554;-57
2023/11/10 05:37:18;;;;;;;8.32;2.40;;;18.50;47.50;;;;;;5054310;28;20192;-59
2023/11/10 05:39:46;;;;;;;7.45;2.10;;;18.50;47.70;;;;;;5054407;28;20285;-56
2023/11/10 05:42:13;;;;;;;9.07;2.10;;;18.50;47.70;;;;;;5054564;28;20191;-58
2023/11/10 05:44:40;;;;;;;9.20;2.28;;;18.60;47.70;;;;;;5053775;28;20227;-58
2023/11/10 05:47:07;;;;;;;6.55;2.00;;;18.60;47.60;;;;;;5054478;28;20188;-58
2023/11/10 05:49:34;;;;;;;9.18;2.05;;;18.70;47.60;;;;;;5054304;28;20776;-58
2023/11/10 05:52:04;;;;;;;8.63;2.05;;;18.70;47.40;;;;;;5054063;28;20192;-58
2023/11/10 05:54:31;;;;;;;9.05;2.50;;;18.80;47.30;;;;;;5054412;28;20247;-57
2023/11/10 05:56:58;;;;;;;9.40;2.20;;;19.00;47.30;;;;;;5054251;28;20271;-57
2023/11/10 05:59:25;;;;;;;8.63;2.20;;;19.00;47.20;;;;;;5053864;28;20239;-59
2023/11/10 06:01:52;;;;;;;9.45;2.53;;;19.20;47.10;;;;;;5053821;28;20194;-58
2023/11/10 06:04:19;;;;;;;7.40;2.03;;;19.30;47.00;;;;;;5053769;28;20238;-58
2023/11/10 06:06:46;;;;;;;5.80;1.70;;;19.30;46.80;;;;;;5053976;28;20202;-58
2023/11/10 06:09:16;;;;;;;10.50;2.17;;;19.40;46.70;;;;;;5053930;28;20211;-58
2023/11/10 06:11:44;;;;;;;11.23;2.42;;;19.50;46.50;;;;;;5053688;28;20681;-58
2023/11/10 06:14:12;;;;;;;7.72;2.53;;;19.60;46.40;;;;;;5053238;28;20712;-58
2023/11/10 06:16:40;;;;;;;7.13;2.20;;;19.70;46.10;;;;;;5053869;28;20275;-59
2023/11/10 06:19:07;;;;;;;9.07;2.53;;;19.70;45.90;;;;;;5053552;28;20701;-58
2023/11/10 06:21:34;;;;;;;9.15;2.15;;;19.80;46.00;;;;;;5053422;28;20278;-59
2023/11/10 06:24:02;;;;;;;7.47;2.15;;;19.80;46.00;;;;;;5053766;28;20307;-57
2023/11/10 06:26:30;;;;;;;9.40;2.67;;;19.80;46.00;;;;;;5053670;28;20270;-57
2023/11/10 06:28:58;;;;;;;6.57;1.85;;;19.90;46.10;;;;;;5053098;28;20290;-59
2023/11/10 06:31:25;;;;;;;7.60;1.95;;;19.90;46.10;;;;;;5053564;28;20274;-58
2023/11/10 06:33:53;;;;;;;8.15;2.70;;;19.90;46.10;;;;;;5053545;28;20298;-58
2023/11/10 06:36:20;;;;;;;10.35;2.22;;;19.90;46.10;;;;;;5053073;28;20291;-57
2023/11/10 06:38:48;;;;;;;7.38;2.28;;;20.00;46.10;;;;;;5052937;28;20273;-58
2023/11/10 06:41:15;;;;;;;7.57;2.00;;;19.90;46.00;;;;;;5053092;28;20278;-59
2023/11/10 06:43:45;;;;;;;5.40;2.00;;;19.90;45.90;;;;;;5052687;28;20697;-59
2023/11/10 06:46:12;;;;;;;8.10;2.47;;;20.00;46.00;;;;;;5052455;28;20654;-59
2023/11/10 06:48:39;;;;;;;8.95;2.20;;;20.00;45.90;;;;;;5053285;28;20223;-57
2023/11/10 06:51:06;;;;;;;10.00;2.53;;;20.00;46.10;;;;;;5052847;28;20196;-58
2023/11/10 06:53:33;;;;;;;10.52;2.50;;;20.00;45.90;;;;;;5053132;28;20216;-59
2023/11/10 06:56:00;;;;;;;7.05;1.92;;;20.10;45.90;;;;;;5052712;28;20567;-58
2023/11/10 06:58:27;;;;;;;8.00;2.28;;;20.10;45.70;;;;;;5052856;28;20239;-57
2023/11/10 07:00:58;;;;;;;6.50;2.08;;;20.10;45.70;;;;;;5053028;28;20184;-58
2023/11/10 07:03:25;;;;;;;6.97;2.00;;;20.20;45.70;;;;;;5052426;28;20266;-59
2023/11/10 07:05:52;;;;;;;7.55;2.05;;;20.20;45.70;;;;;;5052671;28;20234;-58
2023/11/10 07:08:20;;;;;;;7.32;2.13;;;20.20;45.60;;;;;;5052983;28;20211;-58
2023/11/10 07:10:51;;;;;;;4.53;1.70;;;20.30;45.70;;;;;;5052853;28;20604;-59
2023/11/10 07:13:18;;;;;;;6.20;1.90;;;20.30;45.60;;;;;;5052492;28;20250;-59
2023/11/10 07:15:46;;;;;;;7.53;2.40;;;20.40;45.60;;;;;;5052784;28;20198;-58
2023/11/10 07:18:14;;;;;;;7.05;2.22;;;20.40;45.50;;;;;;5052383;28;20704;-58
2023/11/10 07:20:44;;;;;;;11.23;2.42;;;20.50;45.50;;;;;;5052087;28;20253;-59
2023/11/10 07:23:11;;;;;;;8.10;2.10;;;20.50;45.40;;;;;;5052655;28;20234;-58
2023/11/10 07:25:39;;;;;;;8.82;2.25;;;20.50;45.30;;;;;;5052596;28;20215;-59
2023/11/10 07:28:06;;;;;;;6.18;2.00;;;20.50;45.20;;;;;;5052164;28;20191;-58
2023/11/10 07:30:35;;;;;;;6.68;1.80;;;20.50;45.20;;;;;;5052594;28;20198;-57
2023/11/10 07:33:03;;;;;;;4.57;1.70;;;20.50;45.10;;;;;;5052444;28;20227;-58
2023/11/10 07:35:32;;;;;;;8.88;1.67;;;20.50;45.10;;;;;;5048935;28;20200;-57
2023/11/10 07:37:59;;;;;;;8.98;2.03;;;20.50;45.10;;;;;;5052514;28;20234;-56
2023/11/10 07:40:26;;;;;;;9.30;2.00;;;20.50;45.10;;;;;;5051964;28;20306;-59
2023/11/10 07:42:53;;;;;;;8.25;2.33;;;20.60;45.20;;;;;;5063426;28;20194;-56
2023/11/10 07:45:21;;;;;;;9.65;2.53;;;20.60;45.20;;;;;;5071983;28;20278;-58
2023/11/10 07:47:49;;;;;;;7.35;2.10;;;20.60;45.10;;;;;;5068372;28;20295;-59
2023/11/10 07:50:19;;;;;;;12.45;2.65;;;20.70;45.20;;;;;;5055318;28;20247;-56
2023/11/10 07:52:48;;;;;;;9.43;2.13;;;20.70;45.20;;;;;;5051993;28;20192;-59
2023/11/10 07:55:15;;;;;;;7.57;2.00;;;20.60;45.10;;;;;;5051986;28;20633;-58
2023/11/10 07:57:43;;;;;;;8.02;2.25;;;20.60;45.10;;;;;;5059015;28;20199;-59
2023/11/10 08:00:16;;;;;;;9.55;2.15;;;20.60;45.10;;;;;;5055342;28;20238;-59
2023/11/10 08:02:43;;;;;;;11.93;2.58;;;20.60;45.10;;;;;;5072747;28;20186;-56
2023/11/10 08:05:10;;;;;;;9.93;2.58;;;20.50;45.10;;;;;;5061060;28;20243;-60
2023/11/10 08:07:37;;;;;;;8.90;2.30;;;20.50;45.30;;;;;;5062668;28;20290;-58
2023/11/10 08:10:07;;;;;;;8.85;2.45;;;20.50;45.50;;;;;;5060926;28;20422;-60
2023/11/10 08:12:36;;;;;;;10.20;2.33;;;20.50;45.60;;;;;;5065071;28;20680;-59
2023/11/10 08:15:04;;;;;;;16.23;2.50;;;20.50;45.70;;;;;;5061541;28;20245;-59
2023/11/10 08:17:31;;;;;;;10.23;2.60;;;20.60;45.90;;;;;;5060280;28;20246;-56
2023/11/10 08:19:58;;;;;;;11.45;2.72;;;20.60;46.00;;;;;;5054940;28;20227;-58
2023/11/10 08:22:26;;;;;;;8.95;2.53;;;20.60;45.90;;;;;;5055086;28;20721;-57
2023/11/10 08:24:53;;;;;;;10.25;2.20;;;20.60;45.90;;;;;;5054846;28;20224;-59
2023/11/10 08:27:22;;;;;;;10.75;2.72;;;20.70;46.00;;;;;;5054626;28;20199;-60
2023/11/10 08:29:49;;;;;;;8.93;2.35;;;20.70;45.90;;;;;;5054972;28;20223;-59
2023/11/10 08:32:16;;;;;;;13.35;3.13;;;20.70;45.90;;;;;;5072314;28;20191;-60
2023/11/10 08:34:43;;;;;;;9.82;2.58;;;20.70;45.90;;;;;;5073785;28;20222;-59
2023/11/10 08:37:11;;;;;;;12.85;3.03;;;20.70;46.00;;;;;;5074587;28;20194;-59
2023/11/10 08:39:38;;;;;;;12.68;3.00;;;20.70;46.10;;;;;;5074491;28;20335;-60
2023/11/10 08:42:05;;;;;;;11.60;2.90;;;20.70;46.10;;;;;;5074211;28;20202;-59
2023/11/10 08:44:34;;;;;;;10.93;3.20;;;20.70;46.10;;;;;;5074571;28;20225;-60
2023/11/10 08:47:01;;;;;;;10.77;2.75;;;20.80;46.20;;;;;;5074048;28;20615;-59
2023/11/10 08:49:28;;;;;;;8.73;2.35;;;20.70;46.20;;;;;;5070144;28;20247;-58
2023/11/10 08:51:55;;;;;;;12.15;2.55;;;20.70;46.20;;;;;;5056591;28;20217;-60
2023/11/10 08:54:22;;;;;;;9.43;2.70;;;20.70;46.20;;;;;;5061623;28;20696;-59
2023/11/10 08:56:49;;;;;;;14.00;3.05;;;20.80;46.20;;;;;;5065413;28;20199;-59
2023/11/10 08:59:16;;;;;;;14.80;3.70;;;20.80;46.30;;;;;;5066771;28;20320;-60
2023/11/10 09:01:44;;;;;;;10.98;2.90;;;20.80;46.30;;;;;;5073643;28;20290;-59
2023/11/10 09:04:11;;;;;;;12.45;2.83;;;20.80;46.30;;;;;;5073490;28;20234;-60
2023/11/10 09:06:38;;;;;;;13.48;2.90;;;20.90;46.30;;;;;;5074441;28;20285;-60
2023/11/10 09:09:05;;;;;;;17.95;3.15;;;20.90;46.20;;;;;;5073342;28;20223;-60
2023/11/10 09:11:32;;;;;;;14.02;3.08;;;21.00;46.10;;;;;;5062961;28;20199;-60
2023/11/10 09:13:59;;;;;;;11.02;2.63;;;21.10;46.00;;;;;;5054239;28;20215;-60
2023/11/10 09:16:27;;;;;;;12.15;3.05;;;21.20;46.00;;;;;;5054599;28;20238;-59
2023/11/10 09:18:56;;;;;;;10.93;2.95;;;21.20;45.80;;;;;;5059786;28;20244;-60
2023/11/10 09:21:23;;;;;;;14.25;3.25;;;21.30;45.80;;;;;;5060474;28;20278;-59
2023/11/10 09:23:50;;;;;;;10.55;2.85;;;21.30;45.80;;;;;;5065840;28;20306;-60
2023/11/10 09:26:19;;;;;;;14.07;3.10;;;21.20;45.70;;;;;;5053732;28;20194;-60
2023/11/10 09:28:48;;;;;;;9.23;2.75;;;21.20;45.80;;;;;;5054091;28;20250;-58
2023/11/10 09:31:15;;;;;;;7.50;2.33;;;21.20;45.80;;;;;;5053964;28;20230;-58
2023/11/10 09:33:42;;;;;;;13.45;2.88;;;21.20;45.90;;;;;;5053423;28;20703;-60
2023/11/10 09:36:14;;;;;;;8.75;2.72;;;21.20;45.90;;;;;;5053456;28;20198;-58
2023/11/10 09:38:41;;;;;;;11.30;3.10;;;21.20;46.00;;;;;;5052996;28;20214;-58
2023/11/10 09:41:14;;;;;;;11.80;3.25;;;21.20;46.20;;;;;;5052338;28;20234;-61
2023/11/10 09:43:43;;;;;;;16.30;2.50;;;21.20;46.20;;;;;;5053179;28;20854;-58
2023/11/10 09:46:12;;;;;;;11.77;2.92;;;21.20;46.30;;;;;;5054268;28;20202;-60
2023/11/10 09:48:41;;;;;;;11.55;2.85;;;21.20;46.30;;;;;;5061970;28;20200;-60
2023/11/10 09:51:11;;;;;;;12.27;3.08;;;21.20;46.30;;;;;;5062919;28;20195;-60
2023/11/10 09:53:40;;;;;;;9.98;2.75;;;21.30;46.40;;;;;;5060726;28;20234;-60
2023/11/10 09:56:08;;;;;;;12.20;3.08;;;21.30;46.30;;;;;;5061533;28;20230;-60
2023/11/10 09:58:35;;;;;;;12.23;3.10;;;21.30;46.30;;;;;;5055649;28;20291;-60
2023/11/10 10:01:08;;;;;;;13.25;2.55;;;21.30;46.30;;;;;;5053261;28;20266;-61
2023/11/10 10:03:36;;;;;;;9.43;2.85;;;21.30;46.30;;;;;;5052778;28;20228;-59
2023/11/10 10:06:03;;;;;;;11.70;2.50;;;21.30;46.40;;;;;;5053561;28;20249;-57
2023/11/10 10:08:32;;;;;;;12.15;2.60;;;21.30;46.30;;;;;;5053237;28;20670;-60
2023/11/10 10:11:05;;;;;;;12.05;2.33;;;21.30;46.30;;;;;;5064289;28;20241;-60
2023/11/10 10:13:32;;;;;;;12.40;2.67;;;21.30;47.00;;;;;;5053421;28;20192;-59
2023/11/10 10:16:07;;;;;;;9.77;2.88;;;21.30;46.30;;;;;;5053596;28;20216;-59
2023/11/10 10:18:34;;;;;;;12.45;3.25;;;21.30;46.20;;;;;;5052983;28;20194;-57
2023/11/10 10:21:01;;;;;;;23.25;2.65;;;21.40;46.30;;;;;;5051943;28;20310;-60
2023/11/10 10:23:28;;;;;;;12.32;2.70;;;21.40;46.30;;;;;;5058769;28;20734;-59
2023/11/10 10:25:59;;;;;;;10.68;2.55;;;21.40;46.30;;;;;;5062945;28;20219;-59
2023/11/10 10:28:26;;;;;;;8.60;2.50;;;21.40;46.30;;;;;;5058749;28;20192;-59
2023/11/10 10:30:54;;;;;;;9.35;3.10;;;21.40;46.30;;;;;;5061826;28;20306;-58
2023/11/10 10:33:25;;;;;;;14.38;3.10;;;21.40;46.30;;;;;;5052171;28;20828;-57
2023/11/10 10:35:52;;;;;;;19.10;3.13;;;21.40;46.50;;;;;;5052903;28;20299;-59
2023/11/10 10:38:22;;;;;;;11.55;2.58;;;21.40;46.50;;;;;;5052578;28;20200;-59
2023/11/10 10:40:55;;;;;;;9.00;2.75;;;21.40;47.10;;;;;;5052787;28;20235;-59
2023/11/10 10:43:24;;;;;;;10.23;2.30;;;21.40;46.50;;;;;;5052447;28;20610;-59
2023/11/10 10:45:52;;;;;;;13.73;2.60;;;21.40;46.50;;;;;;5053029;28;20223;-58
2023/11/10 10:48:20;;;;;;;12.45;2.50;;;21.40;46.60;;;;;;5058676;28;20653;-58
2023/11/10 10:50:47;;;;;;;12.90;2.53;;;21.40;46.70;;;;;;5072215;28;20767;-59
2023/11/10 10:53:17;;;;;;;13.23;2.78;;;21.40;46.70;;;;;;5072511;28;20187;-59
2023/11/10 10:55:50;;;;;;;15.90;2.88;;;21.40;46.80;;;;;;5071680;28;20262;-59
2023/11/10 10:58:20;;;;;;;12.30;2.78;;;21.40;46.80;;;;;;5072312;28;20621;-60
2023/11/10 11:00:49;;;;;;;13.13;2.17;;;21.30;46.70;;;;;;5072519;28;20230;-59
2023/11/10 11:03:34;;;;;;;8.32;2.33;;;21.40;46.80;;;;;;5071782;28;20577;-60
2023/11/10 11:06:16;;;;;;;19.77;2.67;;;21.40;46.80;;;;;;5066421;28;20697;-58
2023/11/10 11:09:00;;;;;;;20.67;2.85;;;21.30;46.80;;;;;;5052223;28;20199;-56
2023/11/10 11:11:59;;;;;;;13.32;2.03;;;21.40;46.80;;;;;;5052232;28;20289;-56
2023/11/10 11:14:37;;;;;;;14.70;2.15;;;21.40;46.80;;;;;;5052083;28;20658;-58
2023/11/10 11:17:46;;;;;;;10.63;2.15;;;21.40;46.60;;;;;;5052190;28;20190;-58
2023/11/10 11:20:14;;;;;;;13.95;2.05;;;21.40;46.60;;;;;;5052218;28;20238;-57
2023/11/10 11:22:42;;;;;;;10.20;1.88;;;21.40;46.60;;;;;;5052255;28;20194;-57
2023/11/10 11:25:10;;;;;;;11.30;2.00;;;21.30;46.40;;;;;;5052626;28;20687;-59
2023/11/10 11:27:37;;;;;;;15.82;2.17;;;21.30;46.30;;;;;;5063084;28;20435;-58
2023/11/10 11:30:10;;;;;;;9.88;1.83;;;21.30;46.30;;;;;;5053814;28;20237;-57
2023/11/10 11:32:42;;;;;;;10.30;1.90;;;21.30;46.30;;;;;;5051526;28;20188;-59
2023/11/10 11:35:16;;;;;;;12.40;2.50;;;21.30;46.30;;;;;;5051228;28;20701;-60
2023/11/10 11:37:43;;;;;;;8.93;2.15;;;21.30;46.30;;;;;;5051810;28;20199;-56
2023/11/10 11:40:11;;;;;;;9.30;2.20;;;21.20;46.20;;;;;;5056179;28;20724;-57
2023/11/10 11:42:41;;;;;;;5.68;1.60;;;21.20;46.10;;;;;;5069688;28;20194;-57
2023/11/10 11:45:12;;;;;;;7.47;1.70;;;21.20;46.10;;;;;;5054130;28;20709;-54
2023/11/10 11:47:41;;;;;;;8.48;2.00;;;21.20;46.10;;;;;;5052217;28;20279;-57
2023/11/10 11:50:10;;;;;;;5.90;1.70;;;21.20;46.10;;;;;;5071254;28;20773;-58
2023/11/10 11:52:41;;;;;;;7.40;2.05;;;21.20;46.10;;;;;;5059707;28;20198;-56
2023/11/10 11:55:09;;;;;;;6.25;1.98;;;21.20;46.10;;;;;;5050506;28;20701;-58
2023/11/10 11:57:36;;;;;;;11.68;2.00;;;21.20;46.20;;;;;;5061586;28;20203;-58
2023/11/10 12:00:08;;;;;;;7.47;1.70;;;21.20;46.20;;;;;;5066031;28;20430;-56
2023/11/10 12:02:37;;;;;;;5.80;1.75;;;21.20;46.20;;;;;;5056142;28;20669;-55
2023/11/10 12:05:07;;;;;;;4.82;2.10;;;21.20;46.20;;;;;;5058828;28;20230;-58
2023/11/10 12:07:34;;;;;;;5.43;1.60;;;21.20;46.20;;;;;;5062318;28;20202;-58
2023/11/10 12:10:03;;;;;;;7.65;2.03;;;21.20;46.20;;;;;;5056675;28;20308;-58
2023/11/10 12:12:30;;;;;;;6.35;1.70;;;21.20;46.10;;;;;;5054526;28;20332;-58
2023/11/10 12:14:58;;;;;;;3.63;1.58;;;21.20;46.00;;;;;;5055970;28;20225;-57
2023/11/10 12:17:25;;;;;;;5.05;1.60;;;21.20;46.10;;;;;;5061219;28;20195;-59
2023/11/10 12:19:53;;;;;;;8.00;1.70;;;21.30;46.10;;;;;;5054722;28;20310;-59
2023/11/10 12:22:22;;;;;;;6.93;1.63;;;21.30;46.10;;;;;;5066999;28;20234;-58
2023/11/10 12:24:57;;;;;;;3.88;1.50;;;21.20;46.00;;;;;;5063055;28;20305;-57
2023/11/10 12:27:24;;;;;;;7.82;1.58;;;21.30;46.00;;;;;;5071206;28;20218;-58
2023/11/10 12:29:51;;;;;;;8.57;1.80;;;21.30;46.00;;;;;;5071442;28;20634;-57
2023/11/10 12:32:18;;;;;;;7.95;1.88;;;21.30;45.90;;;;;;5070989;28;20287;-56
2023/11/10 12:34:47;;;;;;;7.47;1.65;;;21.30;46.50;;;;;;5071084;28;20317;-58
2023/11/10 12:37:17;;;;;;;5.53;1.60;;;21.30;45.80;;;;;;5061126;28;20199;-59
2023/11/10 12:39:48;;;;;;;5.15;1.60;;;21.30;45.80;;;;;;5067275;28;20229;-57
2023/11/10 12:42:17;;;;;;;5.75;1.60;;;21.40;45.80;;;;;;5071051;28;20285;-60
2023/11/10 12:44:45;;;;;;;5.43;1.70;;;21.40;45.70;;;;;;5073425;28;20305;-57
2023/11/10 12:47:12;;;;;;;6.97;1.42;;;21.40;45.60;;;;;;5074519;28;20190;-59
2023/11/10 12:49:39;;;;;;;3.17;1.38;;;21.50;45.50;;;;;;5069268;28;21018;-58